createdAt,value
2022-09-01T00:04:06.175Z,0.00
2022-09-01T00:09:06.141Z,0.00
2022-09-01T00:14:06.079Z,0.00
2022-09-01T00:19:06.959Z,0.00
2022-09-01T00:24:06.000Z,0.00
2022-09-01T00:29:14.803Z,0.00
2022-09-01T00:34:05.785Z,0.00
2022-09-01T00:39:05.760Z,0.00
2022-09-01T00:44:05.672Z,0.00
2022-09-01T00:49:07.830Z,0.00
2022-09-01T00:54:05.736Z,0.00
2022-09-01T00:59:05.669Z,0.00
2022-09-01T01:04:05.493Z,0.00
2022-09-01T01:09:05.424Z,0.00
2022-09-01T01:14:05.331Z,0.00
2022-09-01T01:19:05.281Z,0.00
2022-09-01T01:24:05.353Z,0.00
2022-09-01T01:29:05.178Z,0.00
2022-09-01T01:34:05.244Z,0.00
2022-09-01T01:39:05.161Z,0.00
2022-09-01T01:44:05.046Z,0.00
2022-09-01T01:49:04.966Z,0.00
2022-09-01T01:54:04.890Z,0.00
2022-09-01T01:59:04.862Z,0.00
2022-09-01T02:04:04.972Z,0.00
2022-09-01T02:09:04.932Z,0.00
2022-09-01T02:14:04.839Z,0.00
2022-09-01T02:19:04.701Z,0.00
2022-09-01T02:24:04.582Z,0.00
2022-09-01T02:29:04.522Z,0.00
2022-09-01T02:34:04.469Z,0.00
2022-09-01T02:39:04.448Z,0.00
2022-09-01T02:44:04.477Z,0.00
2022-09-01T02:49:04.429Z,0.00
2022-09-01T02:54:04.227Z,0.00
2022-09-01T02:59:04.176Z,0.00
2022-09-01T03:04:04.118Z,0.00
2022-09-01T03:09:04.078Z,0.00
2022-09-01T03:14:04.059Z,0.00
2022-09-01T03:19:03.949Z,0.00
2022-09-01T03:24:03.909Z,0.00
2022-09-01T03:29:03.959Z,0.00
2022-09-01T03:34:03.787Z,0.00
2022-09-01T03:39:03.741Z,0.00
2022-09-01T03:44:03.666Z,0.00
2022-09-01T03:49:03.686Z,0.00
2022-09-01T03:54:03.647Z,0.00
2022-09-01T03:59:03.495Z,0.00
2022-09-01T04:04:03.502Z,0.00
2022-09-01T04:09:03.588Z,0.00
2022-09-01T04:14:03.323Z,4.00
2022-09-01T04:19:03.287Z,12.00
2022-09-01T04:24:03.287Z,24.00
2022-09-01T04:29:03.213Z,56.00
2022-09-01T04:34:03.153Z,116.00
2022-09-01T04:39:03.067Z,212.00
2022-09-01T04:44:03.005Z,344.00
2022-09-01T04:49:02.971Z,524.00
2022-09-01T04:54:02.910Z,740.00
2022-09-01T04:59:02.865Z,992.00
2022-09-01T05:04:03.998Z,1280.00
2022-09-01T05:09:02.739Z,1552.00
2022-09-01T05:14:02.695Z,1804.00
2022-09-01T05:19:02.623Z,2044.00
2022-09-01T05:24:02.574Z,2276.00
2022-09-01T05:29:02.530Z,2552.00
2022-09-01T05:34:02.464Z,2916.00
2022-09-01T05:39:02.478Z,3284.00
2022-09-01T05:44:02.432Z,3676.00
2022-09-01T05:49:02.358Z,4268.00
2022-09-01T05:54:02.271Z,3936.00
2022-09-01T06:04:03.158Z,4112.00
2022-09-01T06:09:02.173Z,4244.00
2022-09-01T06:14:02.030Z,4464.00
2022-09-01T06:19:01.960Z,4680.00
2022-09-01T06:24:01.911Z,5464.00
2022-09-01T06:29:10.701Z,5332.00
2022-09-01T06:34:01.817Z,5492.00
2022-09-01T06:39:01.739Z,5504.00
2022-09-01T06:44:01.716Z,6020.00
2022-09-01T06:49:01.669Z,14252.00
2022-09-01T06:54:01.583Z,21472.00
2022-09-01T06:59:02.623Z,14400.00
2022-09-01T07:04:01.568Z,13012.00
2022-09-01T07:14:17.689Z,12948.00
2022-09-01T07:19:02.279Z,14320.00
2022-09-01T07:24:10.924Z,25888.00
2022-09-01T07:29:04.292Z,32000.00
2022-09-01T07:44:02.117Z,38432.00
2022-09-01T07:49:28.512Z,41152.00
2022-09-01T07:54:01.909Z,45920.00
2022-09-01T07:59:07.821Z,44544.00
2022-09-01T08:04:00.949Z,41152.00
2022-09-01T08:09:00.914Z,42816.00
2022-09-01T08:14:00.692Z,43008.00
2022-09-01T08:19:00.697Z,47968.00
2022-09-01T08:24:00.598Z,47776.00
2022-09-01T08:29:00.648Z,46624.00
2022-09-01T08:34:00.541Z,49216.00
2022-09-01T08:39:00.547Z,51744.00
2022-09-01T08:44:00.403Z,50208.00
2022-09-01T08:54:01.262Z,57120.00
2022-09-01T08:59:00.420Z,58784.00
2022-09-01T09:04:01.255Z,61280.00
2022-09-01T09:09:01.045Z,62560.00
2022-09-01T09:14:00.301Z,67136.00
2022-09-01T09:19:00.357Z,65728.00
2022-09-01T09:24:00.228Z,65088.00
2022-09-01T09:29:00.015Z,68320.00
2022-09-01T09:34:00.283Z,76352.00
2022-09-01T09:39:00.065Z,69152.00
2022-09-01T09:43:59.895Z,74272.00
2022-09-01T09:49:00.015Z,77312.00
2022-09-01T09:53:59.726Z,71776.00
2022-09-01T09:58:59.709Z,76512.00
2022-09-01T10:03:59.633Z,74464.00
2022-09-01T10:08:59.576Z,73376.00
2022-09-01T10:13:59.629Z,72032.00
2022-09-01T10:18:59.659Z,73152.00
2022-09-01T10:24:17.046Z,76576.00
2022-09-01T10:29:00.491Z,70752.00
2022-09-01T10:33:59.429Z,75040.00
2022-09-01T10:39:04.802Z,73696.00
2022-09-01T10:44:02.432Z,72832.00
2022-09-01T10:49:07.153Z,78592.00
2022-09-01T10:54:03.128Z,76640.00
2022-09-01T11:04:00.723Z,86528.00
2022-09-01T11:08:59.052Z,71392.00
2022-09-01T11:13:59.232Z,79616.00
2022-09-01T11:18:58.913Z,16452.00
2022-09-01T11:23:58.777Z,75584.00
2022-09-01T11:28:58.699Z,90240.00
2022-09-01T11:33:59.644Z,21440.00
2022-09-01T11:38:59.703Z,89920.00
2022-09-01T11:43:58.652Z,93088.00
2022-09-01T11:48:58.570Z,82496.00
2022-09-01T11:53:59.611Z,20448.00
2022-09-01T11:58:58.412Z,80736.00
2022-09-01T12:03:58.383Z,35776.00
2022-09-01T12:08:58.404Z,57888.00
2022-09-01T12:13:58.331Z,88512.00
2022-09-01T12:18:58.275Z,23840.00
2022-09-01T12:23:58.243Z,78496.00
2022-09-01T12:29:07.045Z,20128.00
2022-09-01T12:33:58.064Z,76128.00
2022-09-01T12:38:58.012Z,69216.00
2022-09-01T12:43:57.936Z,18368.00
2022-09-01T12:48:59.257Z,56256.00
2022-09-01T12:53:58.940Z,19072.00
2022-09-01T12:58:57.780Z,18912.00
2022-09-01T13:03:57.740Z,32800.00
2022-09-01T13:08:58.714Z,27264.00
2022-09-01T13:13:57.724Z,41728.00
2022-09-01T13:19:15.311Z,19424.00
2022-09-01T13:23:58.814Z,39488.00
2022-09-01T13:28:57.517Z,32704.00
2022-09-01T13:34:23.218Z,32480.00
2022-09-01T13:38:58.433Z,34528.00
2022-09-01T13:43:58.392Z,41248.00
2022-09-01T13:49:41.372Z,40480.00
2022-09-01T13:53:58.263Z,17312.00
2022-09-01T13:58:57.255Z,36768.00
2022-09-01T14:04:00.180Z,21184.00
2022-09-01T14:08:57.081Z,14324.00
2022-09-01T14:13:57.020Z,26560.00
2022-09-01T14:18:56.980Z,15272.00
2022-09-01T14:23:57.008Z,13052.00
2022-09-01T14:28:56.874Z,25344.00
2022-09-01T14:33:56.816Z,17568.00
2022-09-01T14:38:56.744Z,16992.00
2022-09-01T14:43:59.733Z,11916.00
2022-09-01T14:48:57.658Z,8904.00
2022-09-01T14:53:56.597Z,9004.00
2022-09-01T14:58:56.550Z,11876.00
2022-09-01T15:03:56.528Z,13512.00
2022-09-01T15:08:56.442Z,13340.00
2022-09-01T15:13:56.388Z,10452.00
2022-09-01T15:18:56.324Z,8576.00
2022-09-01T15:23:56.298Z,6492.00
2022-09-01T15:28:56.226Z,6684.00
2022-09-01T15:33:56.162Z,7556.00
2022-09-01T15:38:56.114Z,6800.00
2022-09-01T15:43:56.054Z,6736.00
2022-09-01T15:48:55.995Z,5868.00
2022-09-01T15:53:55.946Z,6248.00
2022-09-01T15:59:03.155Z,6012.00
2022-09-01T16:03:56.827Z,6392.00
2022-09-01T16:08:55.793Z,6332.00
2022-09-01T16:13:55.731Z,6232.00
2022-09-01T16:18:55.673Z,6956.00
2022-09-01T16:23:55.632Z,7276.00
2022-09-01T16:28:55.560Z,6020.00
2022-09-01T16:33:55.515Z,5396.00
2022-09-01T16:38:55.463Z,4460.00
2022-09-01T16:43:55.419Z,4532.00
2022-09-01T16:48:55.357Z,4188.00
2022-09-01T16:53:55.295Z,3944.00
2022-09-01T16:58:55.244Z,3644.00
2022-09-01T17:03:55.179Z,3476.00
2022-09-01T17:08:55.132Z,3336.00
2022-09-01T17:13:55.056Z,3196.00
2022-09-01T17:18:55.020Z,3004.00
2022-09-01T17:23:54.947Z,2740.00
2022-09-01T17:28:54.936Z,2548.00
2022-09-01T17:33:54.879Z,2320.00
2022-09-01T17:38:54.860Z,2084.00
2022-09-01T17:43:54.758Z,1856.00
2022-09-01T17:48:56.751Z,1612.00
2022-09-01T17:53:54.629Z,1356.00
2022-09-01T17:58:54.585Z,1088.00
2022-09-01T18:03:54.535Z,780.00
2022-09-01T18:08:54.535Z,560.00
2022-09-01T18:13:54.822Z,376.00
2022-09-01T18:18:54.395Z,236.00
2022-09-01T18:23:54.474Z,136.00
2022-09-01T18:28:54.246Z,72.00
2022-09-01T18:33:54.184Z,36.00
2022-09-01T18:38:54.283Z,16.00
2022-09-01T18:43:54.239Z,8.00
2022-09-01T18:48:54.171Z,4.00
2022-09-01T18:53:54.115Z,0.00
2022-09-01T18:58:54.113Z,0.00
2022-09-01T19:03:54.046Z,0.00
2022-09-01T19:08:54.049Z,0.00
2022-09-01T19:13:54.017Z,0.00
2022-09-01T19:18:53.940Z,0.00
2022-09-01T19:23:53.894Z,0.00
2022-09-01T19:28:53.665Z,0.00
2022-09-01T19:34:02.418Z,0.00
2022-09-01T19:38:53.559Z,0.00
2022-09-01T19:43:53.538Z,0.00
2022-09-01T19:48:53.361Z,0.00
2022-09-01T19:53:53.422Z,0.00
2022-09-01T19:58:53.251Z,0.00
2022-09-01T20:03:53.188Z,0.00
2022-09-01T20:08:53.339Z,0.00
2022-09-01T20:13:53.077Z,0.00
2022-09-01T20:18:53.475Z,0.00
2022-09-01T20:23:53.022Z,0.00
2022-09-01T20:28:52.962Z,0.00
2022-09-01T20:33:52.878Z,0.00
2022-09-01T20:38:52.900Z,0.00
2022-09-01T20:43:52.840Z,0.00
2022-09-01T20:48:52.688Z,0.00
2022-09-01T20:53:52.625Z,0.00
2022-09-01T20:58:52.719Z,0.00
2022-09-01T21:03:54.544Z,0.00
2022-09-01T21:08:52.481Z,0.00
2022-09-01T21:13:52.509Z,0.00
2022-09-01T21:18:52.495Z,0.00
2022-09-01T21:23:52.311Z,0.00
2022-09-01T21:28:52.378Z,0.00
2022-09-01T21:33:52.197Z,0.00
2022-09-01T21:38:52.260Z,0.00
2022-09-01T21:43:52.077Z,0.00
2022-09-01T21:48:52.041Z,0.00
2022-09-01T21:53:51.983Z,0.00
2022-09-01T21:58:51.931Z,0.00
2022-09-01T22:03:51.957Z,0.00
2022-09-01T22:08:51.902Z,0.00
2022-09-01T22:13:51.853Z,0.00
2022-09-01T22:18:51.701Z,0.00
2022-09-01T22:23:51.830Z,0.00
2022-09-01T22:28:51.761Z,0.00
2022-09-01T22:33:51.539Z,0.00
2022-09-01T22:38:51.480Z,0.00
2022-09-01T22:43:51.431Z,0.00
2022-09-01T22:48:51.357Z,0.00
2022-09-01T22:53:51.359Z,0.00
2022-09-01T22:58:51.254Z,0.00
2022-09-01T23:03:52.175Z,0.00
2022-09-01T23:08:51.127Z,0.00
2022-09-01T23:13:51.229Z,0.00
2022-09-01T23:18:51.040Z,0.00
2022-09-01T23:23:58.307Z,0.00
2022-09-01T23:28:51.948Z,0.00
2022-09-01T23:33:50.847Z,0.00
2022-09-01T23:38:50.815Z,0.00
2022-09-01T23:43:50.758Z,0.00
2022-09-01T23:48:50.908Z,0.00
2022-09-01T23:53:50.636Z,0.00
2022-09-01T23:58:50.605Z,0.00
